Weather at Brussels Airport

Public forecast

Using degrees Celsius for public forecast. Weather courtesy of forecast.io.

Current aviation weather report (METAR) for Brussels Airport

Retrieved 2021/10/22 07:20 UTC (0 seconds ago):

EBBR 220720Z 23013KT CAVOK 07/03 Q1017 NOSIG

Aviation forecast (TAF) for Brussels Airport

Retrieved 2021/10/22 06:27 UTC (35 minutes ago):

TAF TAF EBBR 220500Z 2206/2312 24010KT 9999 FEW020 SCT030 TEMPO 2210/2214 27015G25KT PROB30 2302/2308 3500 BR BKN005